EGNM/LBA METAR and TAF weather

Enter ICAO airport designator
Station Type Date Time Source
EGNM METAR 2019/12/13 14:20 UTC NOAA

EGNM 131420Z 23007KT 200V260 9999 VCSH FEW008 SCT015 05/04 Q0975


Station Type Date Time Source
EGNM Decoded METAR 2019/12/13 14:20 UTC NOAA

Leeds And Bradford, United Kingdom (EGNM) 53-52N 001-39W
Dec 13, 2019 - 09:20 AM EST / 2019.12.13 1420 UTC
Wind: from the SW (230 degrees) at 8 MPH (7 KT) (direction variable):0
Visibility: greater than 7 mile(s):0
Sky conditions: partly cloudy
Weather: showers in the vicinity
Temperature: 41 F (5 C)
Dew Point: 39 F (4 C)
Relative Humidity: 93%
Pressure (altimeter): 28.79 in. Hg (0975 hPa)
ob: EGNM 131420Z 23007KT 200V260 9999 VCSH FEW008 SCT015 05/04 Q0975
cycle: 14

Station Type Date Time Source
EGNM TAF 2019/12/13 12:06 UTC NOAA

TAF TAF EGNM 131101Z 1312/1412 26014KT 9999 FEW010 SCT025
TEMPO 1312/1412 28018G28KT 6000 SHRA BKN010

Example: see airport list